Time;durP1;ratioP1;P1;durP2;ratioP2;P2;SDS_P1;SDS_P2;PMS_P1;PMS_P2;Temp;Humidity;BMP_temperature;BMP_pressure;BME280_temperature;BME280_humidity;BME280_pressure;Samples;Min_cycle;Max_cycle;Signal;HPM_P1;HPM_P2
2023/12/20 00:00:37;;;;;;;5.15;1.33;;;;;;;7.78;100.00;101972.50;5018044;28;20033;-79
2023/12/20 00:03:04;;;;;;;13.52;2.22;;;;;;;7.73;100.00;101975.56;5034398;28;20030;-78
2023/12/20 00:05:31;;;;;;;14.57;2.70;;;;;;;7.67;100.00;101960.00;5017637;28;20065;-78
2023/12/20 00:07:57;;;;;;;6.15;1.33;;;;;;;7.60;100.00;101959.66;5017773;28;20079;-78
2023/12/20 00:10:25;;;;;;;13.65;2.13;;;;;;;7.59;100.00;101962.47;5001658;28;20464;-78
2023/12/20 00:12:51;;;;;;;13.13;2.53;;;;;;;7.49;100.00;101963.25;5017834;28;20044;-79
2023/12/20 00:15:16;;;;;;;11.77;1.48;;;;;;;7.47;100.00;101967.84;5001712;28;20033;-78
2023/12/20 00:17:42;;;;;;;13.80;2.55;;;;;;;7.47;100.00;101967.00;5001175;28;20041;-78
2023/12/20 00:20:08;;;;;;;17.50;2.85;;;;;;;7.48;100.00;101966.88;5001507;28;20079;-78
2023/12/20 00:22:34;;;;;;;5.88;2.00;;;;;;;7.56;100.00;101968.06;5033940;28;20030;-78
2023/12/20 00:25:00;;;;;;;5.93;1.20;;;;;;;7.58;100.00;101972.31;5001608;28;20095;-78
2023/12/20 00:27:25;;;;;;;1.20;0.80;;;;;;;7.60;100.00;101974.88;5017162;28;20052;-78
2023/12/20 00:29:51;;;;;;;3.40;1.00;;;;;;;7.59;100.00;101965.13;5001334;28;20040;-77
2023/12/20 00:32:17;;;;;;;3.03;0.73;;;;;;;7.59;100.00;101984.72;5033531;28;20033;-77
2023/12/20 00:34:43;;;;;;;2.13;1.17;;;;;;;7.57;100.00;101981.34;5001214;28;20184;-77
2023/12/20 00:37:08;;;;;;;2.67;0.90;;;;;;;7.54;100.00;101973.56;5000161;28;20033;-77
2023/12/20 00:39:34;;;;;;;2.65;0.77;;;;;;;7.52;100.00;101969.31;5001209;28;20041;-77
2023/12/20 00:42:03;;;;;;;5.13;0.98;;;;;;;7.51;100.00;101960.41;5000693;28;20034;-77
2023/12/20 00:44:28;;;;;;;4.15;0.85;;;;;;;7.54;100.00;101964.66;5017213;28;20468;-78
2023/12/20 00:46:54;;;;;;;3.63;1.27;;;;;;;7.43;100.00;101958.38;5016748;28;20036;-77
2023/12/20 00:49:20;;;;;;;2.72;0.73;;;;;;;7.35;100.00;101966.16;5001131;28;20038;-77
2023/12/20 00:51:50;;;;;;;9.10;1.70;;;;;;;7.23;100.00;101964.53;5017377;28;20037;-77
2023/12/20 00:54:16;;;;;;;0.90;0.90;;;;;;;7.29;100.00;101963.16;5001152;28;20061;-77
2023/12/20 00:56:42;;;;;;;4.53;0.88;;;;;;;7.24;100.00;101969.72;5033771;28;20033;-77
2023/12/20 00:59:08;;;;;;;0.40;0.40;;;;;;;7.18;100.00;101970.22;5000702;28;20365;-77
2023/12/20 01:01:39;;;;;;;6.32;1.35;;;;;;;7.18;100.00;101972.06;5000803;28;20400;-77
2023/12/20 01:04:07;;;;;;;1.00;0.68;;;;;;;7.20;100.00;101964.78;5033085;28;20555;-77
2023/12/20 01:06:33;;;;;;;5.53;0.88;;;;;;;7.29;100.00;101960.50;5000698;28;20083;-77
2023/12/20 01:09:01;;;;;;;2.00;0.63;;;;;;;7.38;100.00;101963.28;5000470;28;20030;-77
2023/12/20 01:11:27;;;;;;;0.45;0.45;;;;;;;7.42;100.00;101956.69;5000912;28;20123;-77
2023/12/20 01:13:54;;;;;;;4.03;0.90;;;;;;;7.54;100.00;101953.97;5000684;28;20457;-77
2023/12/20 01:16:20;;;;;;;1.65;0.65;;;;;;;7.60;100.00;101948.13;5017041;28;20033;-77
2023/12/20 01:18:46;;;;;;;1.45;1.25;;;;;;;7.66;100.00;101947.59;5032518;28;20113;-77
2023/12/20 01:21:12;;;;;;;0.70;0.70;;;;;;;7.74;100.00;101961.19;5000452;28;20030;-78
2023/12/20 01:23:38;;;;;;;8.20;0.90;;;;;;;7.76;100.00;101947.69;5000528;28;20033;-77
2023/12/20 01:26:05;;;;;;;2.08;1.00;;;;;;;7.74;100.00;101955.84;5016759;28;20369;-77
2023/12/20 01:28:31;;;;;;;1.67;0.95;;;;;;;7.81;100.00;101954.34;5000291;28;20041;-77
2023/12/20 01:31:00;;;;;;;6.32;0.95;;;;;;;7.91;100.00;101965.13;5000379;28;20037;-78
2023/12/20 01:33:26;;;;;;;1.98;0.77;;;;;;;7.98;100.00;101970.84;5016691;28;20440;-78
2023/12/20 01:35:51;;;;;;;1.10;0.75;;;;;;;7.99;100.00;101967.16;5016384;28;20124;-78
2023/12/20 01:38:19;;;;;;;0.65;0.65;;;;;;;7.93;100.00;101961.34;4999981;28;20372;-77
2023/12/20 01:40:48;;;;;;;8.57;1.38;;;;;;;8.03;100.00;101955.22;5016456;28;20030;-78
2023/12/20 01:43:16;;;;;;;2.05;0.45;;;;;;;8.06;100.00;101954.97;5032363;28;20068;-78
2023/12/20 01:45:44;;;;;;;0.88;0.75;;;;;;;8.10;100.00;101946.53;5000087;28;20072;-78
2023/12/20 01:48:10;;;;;;;1.90;0.70;;;;;;;8.12;100.00;101943.72;4999456;28;20531;-78
2023/12/20 01:50:39;;;;;;;5.53;1.02;;;;;;;8.10;100.00;101946.53;4999985;28;20504;-78
2023/12/20 01:53:32;;;;;;;9.13;1.42;;;;;;;8.15;100.00;101938.97;4999918;28;20116;-78
2023/12/20 01:56:01;;;;;;;1.63;1.52;;;;;;;8.18;100.00;101931.63;5032732;28;20491;-78
2023/12/20 01:58:31;;;;;;;8.32;1.63;;;;;;;8.17;100.00;101935.28;4998830;28;20510;-78
2023/12/20 02:00:58;;;;;;;5.10;1.40;;;;;;;8.18;100.00;101931.63;5032816;28;20044;-78
2023/12/20 02:03:23;;;;;;;6.68;1.40;;;;;;;8.17;100.00;101940.66;4999915;28;20036;-78
2023/12/20 02:05:52;;;;;;;1.10;0.93;;;;;;;8.06;100.00;101942.41;5016056;28;20411;-78
2023/12/20 02:08:21;;;;;;;2.67;0.95;;;;;;;7.97;100.00;101942.38;4999822;28;20468;-78
2023/12/20 02:10:49;;;;;;;3.60;1.05;;;;;;;7.92;100.00;101934.72;4999688;28;20033;-78
2023/12/20 02:13:14;;;;;;;3.90;1.38;;;;;;;7.86;100.00;101957.50;4999979;28;20124;-78
2023/12/20 02:15:42;;;;;;;1.55;0.70;;;;;;;7.84;100.00;101951.41;5016452;28;20103;-78
2023/12/20 02:18:08;;;;;;;3.50;0.80;;;;;;;7.85;100.00;101942.41;5031532;28;20032;-77
2023/12/20 02:20:37;;;;;;;3.60;0.85;;;;;;;7.86;100.00;101927.19;5031935;28;20029;-78
2023/12/20 02:23:03;;;;;;;1.60;0.65;;;;;;;7.91;100.00;101927.63;5016108;28;20187;-78
2023/12/20 02:25:31;;;;;;;3.60;0.98;;;;;;;7.93;100.00;101918.50;5015956;28;20120;-78
2023/12/20 02:27:57;;;;;;;4.63;1.30;;;;;;;8.03;100.00;101920.41;5014778;28;20393;-77
2023/12/20 02:30:26;;;;;;;3.20;1.00;;;;;;;8.12;100.00;101916.94;5016356;28;20034;-77
2023/12/20 02:32:52;;;;;;;3.70;1.13;;;;;;;8.13;100.00;101918.66;5015406;28;20037;-81
2023/12/20 02:35:18;;;;;;;4.13;0.82;;;;;;;8.05;100.00;101915.78;4999646;28;20034;-78
2023/12/20 02:37:43;;;;;;;2.92;1.02;;;;;;;8.10;100.00;101917.06;4999041;28;20026;-78
2023/12/20 02:40:10;;;;;;;3.72;1.02;;;;;;;8.20;100.00;101914.44;5015710;28;20029;-78
2023/12/20 02:42:38;;;;;;;3.58;1.25;;;;;;;8.26;100.00;101907.72;5031805;28;20431;-78
2023/12/20 02:45:04;;;;;;;1.58;0.93;;;;;;;8.28;100.00;101913.78;4999633;28;20049;-78
2023/12/20 02:47:30;;;;;;;2.72;0.90;;;;;;;8.32;100.00;101910.72;5015539;28;20040;-78
2023/12/20 02:49:56;;;;;;;3.35;0.75;;;;;;;8.34;100.00;101919.47;4999471;28;20132;-78
2023/12/20 02:52:23;;;;;;;1.15;0.77;;;;;;;8.37;100.00;101942.47;4999294;28;20120;-78
2023/12/20 02:54:49;;;;;;;1.20;0.73;;;;;;;8.39;100.00;101921.78;5015648;28;20033;-78
2023/12/20 02:57:17;;;;;;;4.25;1.02;;;;;;;8.45;100.00;101931.97;4999195;28;20048;-79
2023/12/20 02:59:45;;;;;;;5.70;1.00;;;;;;;8.47;100.00;101926.50;5015612;28;20520;-79
2023/12/20 03:02:11;;;;;;;2.28;0.80;;;;;;;8.49;100.00;101936.06;5015847;28;20034;-78
2023/12/20 03:04:39;;;;;;;6.68;1.25;;;;;;;8.50;100.00;101926.22;5015228;28;20049;-78
2023/12/20 03:07:04;;;;;;;5.72;1.67;;;;;;;8.45;100.00;101912.38;5015421;28;20072;-78
2023/12/20 03:09:30;;;;;;;8.85;1.67;;;;;;;8.49;100.00;101916.47;5000313;28;20065;-78
2023/12/20 03:11:58;;;;;;;5.50;2.03;;;;;;;8.46;100.00;101925.63;5019041;28;20061;-78
2023/12/20 03:14:24;;;;;;;2.45;0.80;;;;;;;8.39;100.00;101919.13;5002863;28;20044;-78
2023/12/20 03:16:52;;;;;;;6.85;1.23;;;;;;;8.38;100.00;101939.66;5002461;28;20124;-78
2023/12/20 03:19:19;;;;;;;1.45;1.08;;;;;;;8.36;100.00;101947.00;5002551;28;20061;-78
2023/12/20 03:21:45;;;;;;;5.10;1.52;;;;;;;8.36;100.00;101941.63;5018952;28;20034;-78
2023/12/20 03:24:10;;;;;;;3.22;0.88;;;;;;;8.40;100.00;101936.88;5002494;28;20037;-78
2023/12/20 03:26:36;;;;;;;2.22;0.80;;;;;;;8.44;100.00;101948.16;5002724;28;20037;-78
2023/12/20 03:29:05;;;;;;;1.25;0.90;;;;;;;8.48;100.00;101946.94;5002486;28;20555;-78
2023/12/20 03:31:30;;;;;;;8.70;1.42;;;;;;;8.50;100.00;101947.66;5002432;28;20486;-79
2023/12/20 03:33:58;;;;;;;0.50;0.50;;;;;;;8.52;100.00;101941.19;5002528;28;20033;-79
2023/12/20 03:36:24;;;;;;;2.13;0.80;;;;;;;8.53;100.00;101931.31;5018990;28;20476;-78
2023/12/20 03:38:49;;;;;;;9.02;1.00;;;;;;;8.55;100.00;101915.94;5018389;28;20026;-78
2023/12/20 03:41:15;;;;;;;1.65;0.65;;;;;;;8.58;100.00;101907.63;5034492;28;20063;-78
2023/12/20 03:43:43;;;;;;;0.93;0.65;;;;;;;8.67;100.00;101897.91;5034576;28;20087;-78
2023/12/20 03:46:11;;;;;;;1.08;0.50;;;;;;;8.69;100.00;101904.84;5002456;28;20025;-79
2023/12/20 03:48:44;;;;;;;4.20;1.10;;;;;;;8.69;100.00;101904.84;5034529;28;20480;-80
2023/12/20 03:51:12;;;;;;;14.07;1.58;;;;;;;8.76;100.00;101906.00;5018624;28;20431;-78
2023/12/20 03:53:40;;;;;;;0.75;0.75;;;;;;;8.83;100.00;101906.28;5002214;28;20026;-79
2023/12/20 03:56:06;;;;;;;8.15;1.20;;;;;;;8.80;100.00;101915.47;5018644;28;20029;-78
2023/12/20 03:58:34;;;;;;;6.10;1.65;;;;;;;8.68;100.00;101929.09;5017873;28;20537;-78
2023/12/20 04:01:01;;;;;;;1.05;0.65;;;;;;;8.59;100.00;101925.41;5018201;28;20107;-78
2023/12/20 04:03:27;;;;;;;8.45;1.83;;;;;;;8.48;100.00;101933.53;5001638;28;20045;-78
2023/12/20 04:05:53;;;;;;;4.97;1.33;;;;;;;8.43;100.00;101936.59;5018235;28;20487;-78
2023/12/20 04:08:18;;;;;;;1.35;0.80;;;;;;;8.38;100.00;101923.56;5017761;28;20033;-78
2023/12/20 04:10:47;;;;;;;2.75;1.27;;;;;;;8.44;100.00;101924.06;5018032;28;20025;-78
2023/12/20 04:13:13;;;;;;;8.43;1.55;;;;;;;8.42;100.00;101921.53;5001572;28;20095;-78
2023/12/20 04:15:38;;;;;;;3.08;1.55;;;;;;;8.44;100.00;101926.72;5017939;28;20132;-78
2023/12/20 04:18:04;;;;;;;8.07;1.52;;;;;;;8.47;100.00;101926.50;5017333;28;20029;-79
2023/12/20 04:20:30;;;;;;;2.58;0.70;;;;;;;8.47;100.00;101915.78;5001064;28;20048;-78
2023/12/20 04:22:56;;;;;;;3.38;1.27;;;;;;;8.45;100.00;101907.00;5001432;28;20527;-78
2023/12/20 04:25:21;;;;;;;2.65;0.85;;;;;;;8.47;100.00;101899.69;5017756;28;20029;-79
2023/12/20 04:27:47;;;;;;;8.50;1.83;;;;;;;8.42;100.00;101912.63;5001273;28;20041;-78
2023/12/20 04:30:16;;;;;;;5.93;1.65;;;;;;;8.43;100.00;101892.88;5001477;28;20049;-78
2023/12/20 04:32:41;;;;;;;6.80;1.35;;;;;;;8.49;100.00;101911.09;5017430;28;20628;-78
2023/12/20 04:35:08;;;;;;;6.45;1.33;;;;;;;8.54;100.00;101922.28;5017750;28;20034;-79
2023/12/20 04:37:37;;;;;;;4.75;1.02;;;;;;;8.57;100.00;101905.91;5017349;28;20120;-79
2023/12/20 04:40:05;;;;;;;5.40;1.30;;;;;;;8.54;100.00;101892.78;5001176;28;20550;-78
2023/12/20 04:42:33;;;;;;;2.05;0.82;;;;;;;8.54;100.00;101890.09;5016838;28;20109;-78
2023/12/20 04:45:01;;;;;;;2.10;0.95;;;;;;;8.53;100.00;101902.66;5000976;28;20105;-78
2023/12/20 04:47:27;;;;;;;15.70;1.98;;;;;;;8.57;100.00;101908.59;5017230;28;20082;-78
2023/12/20 04:49:53;;;;;;;3.50;1.05;;;;;;;8.58;100.00;101902.28;5000951;28;20029;-78
2023/12/20 04:52:22;;;;;;;2.92;1.10;;;;;;;8.58;100.00;101899.59;5001043;28;20033;-78
2023/12/20 04:54:48;;;;;;;6.55;1.65;;;;;;;8.55;100.00;101891.81;5017231;28;20033;-78
2023/12/20 04:57:16;;;;;;;8.88;1.08;;;;;;;8.52;100.00;101898.28;5017139;28;20495;-78
2023/12/20 04:59:42;;;;;;;1.60;1.33;;;;;;;8.52;100.00;101900.09;5001200;28;20515;-78
2023/12/20 05:02:07;;;;;;;4.22;1.50;;;;;;;8.53;100.00;101893.78;5000808;28;20072;-78
2023/12/20 05:04:33;;;;;;;3.97;1.15;;;;;;;8.56;100.00;101902.38;5016743;28;20057;-78
2023/12/20 05:06:59;;;;;;;4.95;1.23;;;;;;;8.58;100.00;101899.59;5000450;28;20056;-78
2023/12/20 05:09:24;;;;;;;2.67;0.88;;;;;;;8.57;100.00;101896.06;5000663;28;20041;-79
2023/12/20 05:11:50;;;;;;;4.72;0.90;;;;;;;8.56;100.00;101893.50;5000253;28;20069;-78
2023/12/20 05:14:16;;;;;;;9.55;1.38;;;;;;;8.52;100.00;101890.25;5000266;28;20136;-78
2023/12/20 05:16:42;;;;;;;6.22;0.98;;;;;;;8.49;100.00;101881.63;5000378;28;20130;-78
2023/12/20 05:19:10;;;;;;;12.48;1.70;;;;;;;8.46;100.00;101881.88;5016232;28;20475;-78
2023/12/20 05:21:36;;;;;;;5.97;1.33;;;;;;;8.48;100.00;101885.28;5016893;28;20041;-78
2023/12/20 05:24:02;;;;;;;7.65;1.50;;;;;;;8.49;100.00;101879.78;5000541;28;20087;-78
2023/12/20 05:26:29;;;;;;;5.05;1.05;;;;;;;8.52;100.00;101874.16;5000152;28;20025;-78
2023/12/20 05:28:55;;;;;;;11.23;1.45;;;;;;;8.53;100.00;101872.34;5016088;28;20034;-79
2023/12/20 05:31:20;;;;;;;0.85;0.85;;;;;;;8.57;100.00;101869.25;5000015;28;20038;-78
2023/12/20 05:33:46;;;;;;;6.47;1.35;;;;;;;8.65;100.00;101881.94;5016018;28;20037;-79
2023/12/20 05:36:13;;;;;;;4.15;1.00;;;;;;;8.65;100.00;101892.69;5015932;28;20399;-79
2023/12/20 05:38:39;;;;;;;1.15;1.05;;;;;;;8.67;100.00;101876.47;5016292;28;20068;-80
2023/12/20 05:41:05;;;;;;;17.02;2.65;;;;;;;8.65;100.00;101884.63;5016773;28;20075;-81
2023/12/20 05:43:33;;;;;;;4.20;0.82;;;;;;;8.63;100.00;101894.66;5015897;28;20472;-78
2023/12/20 05:45:59;;;;;;;6.28;1.10;;;;;;;8.61;100.00;101898.47;5000047;28;20048;-77
2023/12/20 05:48:28;;;;;;;1.35;0.82;;;;;;;8.58;100.00;101915.66;5016467;28;20026;-77
2023/12/20 05:50:54;;;;;;;3.05;1.20;;;;;;;8.56;100.00;101912.28;5032569;28;20083;-77
2023/12/20 05:53:19;;;;;;;0.50;0.47;;;;;;;8.51;100.00;101907.31;5016831;28;20494;-77
2023/12/20 05:55:45;;;;;;;1.30;0.55;;;;;;;8.48;100.00;101912.94;5000041;28;20369;-77
2023/12/20 05:58:11;;;;;;;2.90;1.35;;;;;;;8.47;100.00;101899.69;4999461;28;20037;-77
2023/12/20 06:00:37;;;;;;;2.47;0.70;;;;;;;8.52;100.00;101892.06;4999609;28;20056;-78
2023/12/20 06:03:04;;;;;;;3.47;1.88;;;;;;;8.51;100.00;101890.38;4999600;28;20392;-77
2023/12/20 06:05:31;;;;;;;1.10;0.80;;;;;;;8.55;100.00;101891.81;5032202;28;20387;-77
2023/12/20 06:08:02;;;;;;;5.57;1.20;;;;;;;8.58;100.00;101894.22;4999743;28;20037;-77
2023/12/20 06:10:28;;;;;;;2.35;0.80;;;;;;;8.61;100.00;101896.63;5032687;28;20037;-77
2023/12/20 06:12:59;;;;;;;7.70;1.60;;;;;;;8.65;100.00;101883.78;4999666;28;20550;-77
2023/12/20 06:15:24;;;;;;;2.17;0.70;;;;;;;8.68;100.00;101892.44;5015913;28;20172;-77
2023/12/20 06:17:50;;;;;;;7.20;1.52;;;;;;;8.74;100.00;101899.94;5015812;28;20120;-76
2023/12/20 06:20:19;;;;;;;3.50;1.23;;;;;;;8.76;100.00;101897.97;4999667;28;20128;-77
2023/12/20 06:22:44;;;;;;;2.15;0.88;;;;;;;8.78;100.00;101889.75;4999413;28;20469;-77
2023/12/20 06:25:10;;;;;;;6.22;1.83;;;;;;;8.82;100.00;101882.31;4999441;28;20034;-77
2023/12/20 06:27:45;;;;;;;3.67;1.30;;;;;;;8.88;100.00;101884.44;5000511;28;20040;-77
2023/12/20 06:30:15;;;;;;;3.50;1.55;;;;;;;8.93;100.00;101882.19;4999485;28;20034;-77
2023/12/20 06:32:46;;;;;;;6.82;1.38;;;;;;;8.91;100.00;101878.78;5015609;28;20041;-77
2023/12/20 06:35:12;;;;;;;3.65;1.35;;;;;;;8.94;100.00;101868.63;5016428;28;20047;-78
2023/12/20 06:37:42;;;;;;;4.35;1.20;;;;;;;8.93;100.00;101860.75;5015950;28;20453;-77
2023/12/20 06:40:10;;;;;;;4.45;1.25;;;;;;;8.98;100.00;101888.00;5032386;28;20041;-77
2023/12/20 06:42:35;;;;;;;4.38;1.30;;;;;;;9.02;100.00;101862.56;5015672;28;20072;-77
2023/12/20 06:45:03;;;;;;;6.05;2.17;;;;;;;9.02;100.00;101854.53;5001064;28;20065;-77
2023/12/20 06:47:28;;;;;;;8.98;1.45;;;;;;;8.97;100.00;101840.69;5035713;28;20377;-77
2023/12/20 06:49:54;;;;;;;4.43;1.27;;;;;;;8.96;100.00;101836.31;5002795;28;20068;-77
2023/12/20 06:52:20;;;;;;;7.15;2.13;;;;;;;8.98;100.00;101835.19;5002799;28;20037;-77
2023/12/20 06:54:45;;;;;;;1.90;1.08;;;;;;;8.98;100.00;101834.34;5003173;28;20480;-77
2023/12/20 06:57:11;;;;;;;2.50;0.82;;;;;;;9.05;100.00;101837.31;5002870;28;20128;-78
2023/12/20 06:59:41;;;;;;;7.55;1.10;;;;;;;9.05;100.00;101829.25;5018608;28;20453;-77
2023/12/20 07:02:11;;;;;;;7.80;1.65;;;;;;;9.03;100.00;101824.88;5035532;28;20039;-78
2023/12/20 07:04:40;;;;;;;7.13;1.40;;;;;;;9.01;100.00;101810.75;5019190;28;20034;-77
2023/12/20 07:07:07;;;;;;;7.22;1.35;;;;;;;9.07;100.00;101828.13;5003005;28;20065;-78
2023/12/20 07:09:42;;;;;;;4.57;1.77;;;;;;;9.11;100.00;101823.34;5036471;28;20029;-77
2023/12/20 07:12:11;;;;;;;20.10;2.72;;;;;;;9.07;100.00;101828.13;5035746;28;20033;-78
2023/12/20 07:14:41;;;;;;;9.63;1.75;;;;;;;9.06;100.00;101804.97;5002772;28;20087;-77
2023/12/20 07:17:11;;;;;;;2.97;1.65;;;;;;;8.98;100.00;101813.72;5035519;28;20040;-78
2023/12/20 07:19:38;;;;;;;5.90;1.33;;;;;;;8.91;100.00;101807.22;5019440;28;20079;-77
2023/12/20 07:22:04;;;;;;;2.67;1.15;;;;;;;8.93;100.00;101807.09;5002428;28;20067;-77
2023/12/20 07:24:32;;;;;;;5.93;1.30;;;;;;;8.88;100.00;101806.66;4986280;28;20128;-77
2023/12/20 07:27:03;;;;;;;4.88;1.42;;;;;;;8.87;100.00;101807.66;5035257;28;20021;-77
2023/12/20 07:29:32;;;;;;;3.65;1.50;;;;;;;8.86;100.00;101788.00;5002324;28;20037;-77
2023/12/20 07:32:03;;;;;;;4.10;1.17;;;;;;;8.84;100.00;101797.19;5018999;28;20041;-77
2023/12/20 07:34:29;;;;;;;3.97;1.77;;;;;;;8.80;100.00;101813.56;5018919;28;20052;-77
2023/12/20 07:36:57;;;;;;;7.95;2.63;;;;;;;8.79;100.00;101803.81;5019198;28;20033;-77
2023/12/20 07:39:23;;;;;;;10.00;2.10;;;;;;;8.79;100.00;101811.03;5018232;28;20095;-77
2023/12/20 07:41:54;;;;;;;5.85;2.13;;;;;;;8.79;100.00;101802.97;5001958;28;20025;-77
2023/12/20 07:44:23;;;;;;;5.78;1.42;;;;;;;8.77;100.00;101784.34;5018149;28;20090;-77
2023/12/20 07:46:51;;;;;;;3.33;1.60;;;;;;;8.76;100.00;101793.38;5018063;28;20026;-77
2023/12/20 07:49:19;;;;;;;13.27;1.70;;;;;;;8.73;100.00;101782.06;5002211;28;20038;-77
2023/12/20 07:51:45;;;;;;;4.68;1.33;;;;;;;8.69;100.00;101781.50;5034636;28;20040;-77
2023/12/20 07:54:11;;;;;;;1.90;1.42;;;;;;;8.67;100.00;101786.16;5017713;28;20025;-77
2023/12/20 07:56:37;;;;;;;4.72;1.70;;;;;;;8.71;100.00;101790.25;5017046;28;20032;-77
2023/12/20 07:59:08;;;;;;;8.20;2.42;;;;;;;8.77;100.00;101760.19;5003614;28;20029;-77
2023/12/20 08:01:37;;;;;;;10.88;3.05;;;;;;;8.79;100.00;101760.91;5001274;28;20033;-77
2023/12/20 08:04:02;;;;;;;6.53;1.95;;;;;;;8.83;100.00;101749.91;5001537;28;20033;-77
2023/12/20 08:06:28;;;;;;;4.88;1.98;;;;;;;8.82;100.00;101770.50;5018239;28;20052;-77
2023/12/20 08:08:54;;;;;;;4.60;2.13;;;;;;;8.83;100.00;101792.81;5000598;28;20459;-77
2023/12/20 08:11:19;;;;;;;5.03;2.40;;;;;;;8.84;100.00;101749.78;4999920;28;20064;-78
2023/12/20 08:13:45;;;;;;;4.65;1.92;;;;;;;8.89;100.00;101760.06;5001032;28;20084;-77
2023/12/20 08:16:13;;;;;;;5.70;2.08;;;;;;;8.93;100.00;101773.06;5018032;28;20033;-77
2023/12/20 08:18:39;;;;;;;9.82;2.45;;;;;;;9.00;100.00;101757.25;5017271;28;20536;-77
2023/12/20 08:21:08;;;;;;;8.93;2.08;;;;;;;8.96;100.00;101748.63;5017222;28;20029;-77
2023/12/20 08:23:34;;;;;;;9.38;2.50;;;;;;;8.91;100.00;101766.13;5001172;28;20436;-77
2023/12/20 08:26:07;;;;;;;8.07;2.20;;;;;;;8.86;100.00;101760.34;5001292;28;20040;-79
2023/12/20 08:28:33;;;;;;;6.55;2.13;;;;;;;8.84;100.00;101792.69;5017507;28;20037;-77
2023/12/20 08:31:00;;;;;;;6.68;2.17;;;;;;;8.76;100.00;101785.34;5017535;28;20124;-78
2023/12/20 08:33:25;;;;;;;6.90;2.72;;;;;;;8.78;100.00;101790.53;5033350;28;20033;-78
2023/12/20 08:35:51;;;;;;;9.00;2.28;;;;;;;8.79;100.00;101803.81;5001395;28;20041;-77
2023/12/20 08:38:17;;;;;;;11.80;4.13;;;;;;;8.67;100.00;101785.31;5001008;28;20499;-78
2023/12/20 08:40:43;;;;;;;6.70;2.25;;;;;;;8.56;100.00;101765.66;5017216;28;20041;-77
2023/12/20 08:43:09;;;;;;;6.65;1.98;;;;;;;8.53;100.00;101759.75;5000494;28;20080;-78
2023/12/20 08:45:35;;;;;;;7.72;2.05;;;;;;;8.50;100.00;101742.09;5016590;28;20072;-78
2023/12/20 08:48:01;;;;;;;6.72;2.03;;;;;;;8.49;100.00;101758.31;5001168;28;20033;-78
2023/12/20 08:50:31;;;;;;;13.45;3.90;;;;;;;8.50;100.00;101770.75;5000981;28;20382;-79
2023/12/20 08:53:02;;;;;;;8.70;2.05;;;;;;;8.52;100.00;101784.84;5002109;28;20029;-78
2023/12/20 08:55:28;;;;;;;4.03;1.50;;;;;;;8.52;100.00;101780.34;5033031;28;20036;-78
2023/12/20 08:57:55;;;;;;;7.32;2.58;;;;;;;8.63;100.00;101760.63;5032721;28;20029;-78
2023/12/20 09:00:24;;;;;;;14.45;2.72;;;;;;;8.76;100.00;101771.94;5032768;28;20033;-79
2023/12/20 09:02:49;;;;;;;10.05;2.65;;;;;;;8.82;100.00;101777.72;5016676;28;20026;-81
2023/12/20 09:05:18;;;;;;;9.48;2.28;;;;;;;8.77;100.00;101762.03;5032785;28;20104;-82
2023/12/20 09:07:46;;;;;;;9.18;2.50;;;;;;;8.77;100.00;101768.25;5016288;28;20083;-81
2023/12/20 09:10:15;;;;;;;4.32;2.42;;;;;;;8.74;100.00;101776.56;5000576;28;20495;-81
2023/12/20 09:12:42;;;;;;;10.57;3.88;;;;;;;8.63;100.00;101784.75;5016746;28;20041;-80
2023/12/20 09:15:08;;;;;;;11.40;2.63;;;;;;;8.57;100.00;101786.16;5016860;28;20451;-81
2023/12/20 09:17:36;;;;;;;8.52;2.22;;;;;;;8.53;100.00;101786.56;5000079;28;20120;-80
2023/12/20 09:20:07;;;;;;;2.70;1.75;;;;;;;8.49;100.00;101785.97;5016928;28;20384;-80
2023/12/20 09:22:38;;;;;;;11.13;2.53;;;;;;;8.52;100.00;101777.66;5000554;28;20045;-81
2023/12/20 09:25:07;;;;;;;6.18;2.00;;;;;;;8.52;100.00;101766.06;5016543;28;20030;-81
2023/12/20 09:27:42;;;;;;;8.77;3.10;;;;;;;8.58;100.00;101760.19;5033067;28;20032;-80
2023/12/20 09:30:09;;;;;;;10.27;3.22;;;;;;;8.63;100.00;101760.63;5032953;28;20033;-80
2023/12/20 09:32:34;;;;;;;2.45;1.63;;;;;;;8.67;100.00;101747.78;4999656;28;20096;-80
2023/12/20 09:35:05;;;;;;;11.93;2.90;;;;;;;8.67;100.00;101751.28;5000405;28;20392;-80
2023/12/20 09:37:34;;;;;;;9.63;2.13;;;;;;;8.65;100.00;101750.56;5000953;28;20042;-80
2023/12/20 09:40:19;;;;;;;10.32;1.98;;;;;;;8.65;100.00;101758.63;5000949;28;20028;-80
2023/12/20 09:43:15;;;;;;;;;;;;;;;;;;;;;
2023/12/20 09:45:56;;;;;;;6.97;1.95;;;;;;;8.78;100.00;101748.47;5019664;28;20476;-80
2023/12/20 09:48:26;;;;;;;5.50;2.05;;;;;;;8.84;100.00;101717.59;5034029;28;20055;-80
2023/12/20 09:50:55;;;;;;;6.45;2.30;;;;;;;8.93;100.00;101729.31;5006299;28;20059;-80
2023/12/20 09:53:45;;;;;;;4.57;2.35;;;;;;;9.00;100.00;101722.38;5039309;28;20025;-81
2023/12/20 09:56:17;;;;;;;7.53;2.80;;;;;;;9.11;100.00;101724.91;4999762;28;20033;-81
2023/12/20 09:59:03;;;;;;;;;;;;;;;;;;;;;
2023/12/20 10:01:39;;;;;;;10.68;2.85;;;;;;;9.38;100.00;101736.75;5034083;28;20049;-81
2023/12/20 10:04:12;;;;;;;11.02;3.33;;;;;;;9.45;100.00;101741.41;5015635;28;20049;-80
2023/12/20 10:06:53;;;;;;;10.40;3.67;;;;;;;9.48;100.00;101761.75;5032449;28;20078;-81
2023/12/20 10:09:29;;;;;;;14.38;2.63;;;;;;;9.50;100.00;101758.91;4999731;28;20033;-80
2023/12/20 10:11:54;;;;;;;7.25;1.83;;;;;;;9.54;100.00;101753.09;4999673;28;20026;-81
2023/12/20 10:25:14;;;;;;;6.45;2.67;;;;;;;9.50;100.00;101758.91;5008375;28;20100;-81
2023/12/20 10:27:40;;;;;;;7.38;1.60;;;;;;;9.49;100.00;101755.38;5018601;28;20076;-82
2023/12/20 10:30:06;;;;;;;15.85;3.95;;;;;;;9.51;100.00;101748.03;5018841;28;20560;-81
2023/12/20 10:32:32;;;;;;;9.98;2.65;;;;;;;9.48;100.00;101726.00;5019784;28;20037;-81
2023/12/20 10:34:59;;;;;;;6.70;2.38;;;;;;;9.38;100.00;101732.22;5019626;28;20041;-81
2023/12/20 10:37:25;;;;;;;18.85;3.42;;;;;;;9.24;100.00;101738.88;5003204;28;20036;-81
2023/12/20 10:40:16;;;;;;;6.00;2.33;;;;;;;9.12;100.00;101729.28;5019494;28;20091;-81
2023/12/20 10:42:48;;;;;;;7.55;2.58;;;;;;;9.14;100.00;101742.56;5020502;28;20037;-81
2023/12/20 10:45:15;;;;;;;9.45;3.13;;;;;;;9.16;100.00;101752.16;5003235;28;20090;-81
2023/12/20 10:47:42;;;;;;;13.98;3.13;;;;;;;9.26;100.00;101760.19;5035953;28;20030;-80
2023/12/20 10:50:08;;;;;;;10.80;3.72;;;;;;;9.32;100.00;101745.38;5019238;28;20040;-80
2023/12/20 10:52:34;;;;;;;8.65;3.00;;;;;;;9.37;100.00;101746.63;5035688;28;20029;-80
2023/12/20 10:55:14;;;;;;;8.88;2.58;;;;;;;9.43;100.00;101753.28;5020625;28;20083;-81
2023/12/20 10:57:42;;;;;;;14.67;3.63;;;;;;;9.45;100.00;101740.56;5019038;28;20044;-81
2023/12/20 11:08:07;;;;;;;12.00;3.58;;;;;;;9.18;100.00;101715.31;4947668;28;20039;-81
2023/12/20 11:10:41;;;;;;;18.08;3.85;;;;;;;9.15;100.00;101731.69;4946921;28;20132;-81
2023/12/20 11:13:31;;;;;;;18.58;3.92;;;;;;;9.12;100.00;101698.94;5028015;28;20128;-81
2023/12/20 11:16:00;;;;;;;9.65;2.95;;;;;;;9.08;100.00;101694.84;5002898;28;20045;-82
2023/12/20 11:18:32;;;;;;;8.95;2.45;;;;;;;8.97;100.00;101688.66;5035012;28;20041;-82
2023/12/20 11:21:05;;;;;;;10.95;2.80;;;;;;;9.02;100.00;101691.75;5002606;28;20041;-81
2023/12/20 11:23:34;;;;;;;13.15;4.13;;;;;;;9.04;100.00;101686.22;5019110;28;20034;-81
2023/12/20 11:26:04;;;;;;;20.88;4.15;;;;;;;9.06;100.00;101694.97;5019579;28;20091;-81
2023/12/20 11:28:30;;;;;;;16.13;3.58;;;;;;;9.08;100.00;101697.53;5018697;28;20045;-81
2023/12/20 11:30:59;;;;;;;11.98;3.95;;;;;;;9.05;100.00;101663.78;5018118;28;20033;-81
2023/12/20 11:33:26;;;;;;;13.55;3.53;;;;;;;9.09;100.00;101657.13;5018527;28;20061;-81
2023/12/20 11:35:55;;;;;;;14.93;2.83;;;;;;;9.15;100.00;101674.50;5018374;28;20072;-81
2023/12/20 11:38:21;;;;;;;13.40;3.45;;;;;;;9.19;100.00;101662.50;5001267;28;20574;-81
2023/12/20 11:40:50;;;;;;;9.13;2.30;;;;;;;9.23;100.00;101654.00;5018402;28;20447;-81
2023/12/20 11:43:32;;;;;;;14.27;3.75;;;;;;;9.22;100.00;101660.34;5018235;28;20031;-82
2023/12/20 11:46:04;;;;;;;12.43;2.67;;;;;;;9.22;100.00;101651.47;5018433;28;20060;-81
2023/12/20 11:48:31;;;;;;;27.15;4.53;;;;;;;9.24;100.00;101647.66;5002084;28;20112;-81